Terminal Aerodrome Forecast
Issued by NWS Greer, SC

Home | Current Version | Previous Version | Text Only | Print | Product List | Glossary On
Versions: 1 2 3 4 5 6 7 8 9 10 11 12 13 14 15 16 17 18 19 20 21 22 23 24 25 26 27 28
000
FTUS42 KGSP 220904 AAA
TAFAVL
TAF AMD
KAVL 220904Z 2209/2306 34012G20KT P6SM BKN029
     FM221300 34010KT P6SM SCT035
     FM221500 35010KT P6SM SCT250
     FM230100 33005KT P6SM FEW250=

USA.gov is the U.S. government's official web portal to all federal, state and local government web resources and services.